createdAt,value
2018-11-02T00:02:28.609Z,86.41
2018-11-02T00:04:58.376Z,86.77
2018-11-02T00:11:03.763Z,86.40
2018-11-02T00:13:33.702Z,86.56
2018-11-02T00:16:03.697Z,86.22
2018-11-02T00:18:33.889Z,86.26
2018-11-02T00:21:03.836Z,85.65
2018-11-02T00:23:33.957Z,85.68
2018-11-02T00:26:03.824Z,86.40
2018-11-02T00:28:33.750Z,87.56
2018-11-02T00:31:03.736Z,87.63
2018-11-02T00:33:33.681Z,88.36
2018-11-02T00:36:03.731Z,88.72
2018-11-02T00:38:33.838Z,88.75
2018-11-02T00:41:03.688Z,88.94
2018-11-02T00:43:33.498Z,88.61
2018-11-02T00:46:03.635Z,88.67
2018-11-02T00:48:33.572Z,89.24
2018-11-02T00:51:03.508Z,89.81
2018-11-02T00:53:33.397Z,90.31
2018-11-02T00:56:03.350Z,89.69
2018-11-02T00:58:33.251Z,89.86
2018-11-02T01:01:03.088Z,89.05
2018-11-02T01:03:33.052Z,88.59
2018-11-02T01:06:03.634Z,89.25
2018-11-02T01:08:33.754Z,88.92
2018-11-02T01:11:03.542Z,89.01
2018-11-02T01:13:33.755Z,89.20
2018-11-02T01:16:03.698Z,89.21
2018-11-02T01:18:33.712Z,89.07
2018-11-02T01:21:03.597Z,89.15
2018-11-02T01:23:34.047Z,88.58
2018-11-02T01:26:04.055Z,88.62
2018-11-02T01:28:34.960Z,88.23
2018-11-02T01:31:04.911Z,89.32
2018-11-02T01:33:39.792Z,89.85
2018-11-02T01:36:10.626Z,90.92
2018-11-02T01:38:40.436Z,90.19
2018-11-02T01:41:10.328Z,89.70
2018-11-02T01:43:40.357Z,91.59
2018-11-02T01:46:10.462Z,91.78
2018-11-02T01:48:40.498Z,92.16
2018-11-02T01:51:10.860Z,92.37
2018-11-02T01:53:40.685Z,92.37
2018-11-02T01:56:10.726Z,91.95
2018-11-02T01:58:40.542Z,91.67
2018-11-02T02:01:10.335Z,91.67
2018-11-02T02:03:40.174Z,91.01
2018-11-02T02:06:10.047Z,89.68
2018-11-02T02:08:40.201Z,89.80
2018-11-02T02:11:10.050Z,90.01
2018-11-02T02:13:40.038Z,90.08
2018-11-02T02:16:09.771Z,90.55
2018-11-02T02:18:39.652Z,89.62
2018-11-02T02:21:09.623Z,89.92
2018-11-02T02:23:40.479Z,89.97
2018-11-02T02:26:10.444Z,89.96
2018-11-02T02:28:40.480Z,89.29
2018-11-02T02:31:11.111Z,89.08
2018-11-02T02:33:41.160Z,88.95
2018-11-02T02:36:11.313Z,89.11
2018-11-02T02:38:41.323Z,89.32
2018-11-02T02:41:11.458Z,88.12
2018-11-02T02:43:41.320Z,90.16
2018-11-02T02:46:11.164Z,91.74
2018-11-02T02:48:41.370Z,93.10
2018-11-02T02:51:11.518Z,94.34
2018-11-02T02:53:41.293Z,95.39
2018-11-02T02:56:11.141Z,95.17
2018-11-02T02:58:41.269Z,95.69
2018-11-02T03:01:11.246Z,96.02
2018-11-02T03:03:41.035Z,96.38
2018-11-02T03:06:10.951Z,96.55
2018-11-02T03:08:41.181Z,97.01
2018-11-02T03:11:11.276Z,97.56
2018-11-02T03:13:41.697Z,97.61
2018-11-02T03:16:11.652Z,96.98
2018-11-02T03:18:41.828Z,97.09
2018-11-02T03:21:11.843Z,96.47
2018-11-02T03:23:41.647Z,96.19
2018-11-02T03:26:11.643Z,95.77
2018-11-02T03:28:41.407Z,94.59
2018-11-02T03:31:11.151Z,94.41
2018-11-02T03:33:41.105Z,94.36
2018-11-02T03:36:11.124Z,94.40
2018-11-02T03:38:41.073Z,94.20
2018-11-02T03:41:10.791Z,94.06
2018-11-02T03:43:40.530Z,94.16
2018-11-02T03:46:10.465Z,93.46
2018-11-02T03:48:40.402Z,91.70
2018-11-02T03:51:10.359Z,91.10
2018-11-02T03:53:40.365Z,91.04
2018-11-02T03:56:10.449Z,91.15
2018-11-02T03:58:40.218Z,90.56
2018-11-02T04:01:10.232Z,91.22
2018-11-02T04:03:40.181Z,91.13
2018-11-02T04:06:09.939Z,90.15
2018-11-02T04:08:39.973Z,90.02
2018-11-02T04:11:09.733Z,90.77
2018-11-02T04:13:40.177Z,90.88
2018-11-02T04:16:10.117Z,91.00
2018-11-02T04:18:40.047Z,90.84
2018-11-02T04:21:10.003Z,89.31
2018-11-02T04:23:39.745Z,88.84
2018-11-02T04:26:09.515Z,89.04
2018-11-02T04:28:39.577Z,89.51
2018-11-02T04:31:09.645Z,90.05
2018-11-02T04:33:39.515Z,89.70
2018-11-02T04:36:09.414Z,88.99
2018-11-02T04:38:39.459Z,88.74
2018-11-02T04:41:09.747Z,88.00
2018-11-02T04:43:39.838Z,87.72
2018-11-02T04:46:09.850Z,88.24
2018-11-02T04:48:39.776Z,87.83
2018-11-02T04:51:09.875Z,87.79
2018-11-02T04:53:40.509Z,88.11
2018-11-02T04:56:10.275Z,88.57
2018-11-02T04:58:40.069Z,88.52
2018-11-02T05:01:10.004Z,88.59
2018-11-02T05:03:39.979Z,89.17
2018-11-02T05:06:10.653Z,89.23
2018-11-02T05:08:40.375Z,89.33
2018-11-02T05:11:10.185Z,89.95
2018-11-02T05:13:40.239Z,89.83
2018-11-02T05:16:10.259Z,89.88
2018-11-02T05:18:40.001Z,90.27
2018-11-02T05:21:10.252Z,91.08
2018-11-02T05:23:40.268Z,92.04
2018-11-02T05:26:10.227Z,92.32
2018-11-02T05:28:39.998Z,92.59
2018-11-02T05:31:09.780Z,92.74
2018-11-02T05:33:39.830Z,93.09
2018-11-02T05:36:09.825Z,93.00
2018-11-02T05:38:39.855Z,92.96
2018-11-02T05:41:09.601Z,93.10
2018-11-02T05:43:39.578Z,91.49
2018-11-02T05:46:09.342Z,91.51
2018-11-02T05:48:39.102Z,91.82
2018-11-02T05:51:08.888Z,91.64
2018-11-02T05:53:38.659Z,91.46
2018-11-02T05:56:08.494Z,91.26
2018-11-02T05:58:38.430Z,91.61
2018-11-02T06:01:08.251Z,91.45
2018-11-02T06:03:38.296Z,91.72
2018-11-02T06:06:08.104Z,92.48
2018-11-02T06:08:37.927Z,93.15
2018-11-02T06:11:08.078Z,93.16
2018-11-02T06:13:38.016Z,93.54
2018-11-02T06:16:08.024Z,93.67
2018-11-02T06:18:37.809Z,93.83
2018-11-02T06:21:07.626Z,93.70
2018-11-02T06:23:37.984Z,93.79
2018-11-02T06:26:07.843Z,93.63
2018-11-02T06:28:37.660Z,93.02
2018-11-02T06:31:08.632Z,92.73
2018-11-02T06:33:38.618Z,92.56
2018-11-02T06:36:08.938Z,91.82
2018-11-02T06:38:38.751Z,92.74
2018-11-02T06:41:08.823Z,92.71
2018-11-02T06:43:38.816Z,92.98
2018-11-02T06:46:08.714Z,93.09
2018-11-02T06:48:38.483Z,93.20
2018-11-02T06:51:08.426Z,93.29
2018-11-02T06:53:38.346Z,93.31
2018-11-02T06:56:08.109Z,92.97
2018-11-02T06:58:37.833Z,92.99
2018-11-02T07:01:07.767Z,93.23
2018-11-02T07:03:37.810Z,92.85
2018-11-02T07:06:12.412Z,93.05
2018-11-02T07:08:42.288Z,92.79
2018-11-02T07:11:12.074Z,92.69
2018-11-02T07:13:41.766Z,91.66
2018-11-02T07:16:12.316Z,90.93
2018-11-02T07:18:42.297Z,91.61
2018-11-02T07:21:12.165Z,91.37
2018-11-02T07:23:41.896Z,91.37
2018-11-02T07:26:11.842Z,91.49
2018-11-02T07:28:41.606Z,91.93
2018-11-02T07:31:11.356Z,92.43
2018-11-02T07:33:41.422Z,92.14
2018-11-02T07:36:11.109Z,91.92
2018-11-02T07:39:10.928Z,92.27
2018-11-02T07:41:40.781Z,91.92
2018-11-02T07:44:10.797Z,91.52
2018-11-02T07:46:40.734Z,90.61
2018-11-02T07:49:10.521Z,90.78
2018-11-02T07:51:40.207Z,90.90
2018-11-02T07:54:10.196Z,90.67
2018-11-02T07:56:40.914Z,90.43
2018-11-02T07:59:10.810Z,90.33
2018-11-02T08:01:40.832Z,90.00
2018-11-02T08:04:10.674Z,90.16
2018-11-02T08:06:40.577Z,90.12
2018-11-02T08:09:12.461Z,89.48
2018-11-02T08:11:42.748Z,90.37
2018-11-02T08:14:12.942Z,91.33
2018-11-02T08:16:42.820Z,91.48
2018-11-02T08:19:12.683Z,91.65
2018-11-02T08:21:42.317Z,92.15
2018-11-02T08:24:12.056Z,92.48
2018-11-02T08:26:41.683Z,92.93
2018-11-02T08:29:11.303Z,92.85
2018-11-02T08:31:40.937Z,93.14
2018-11-02T08:34:10.771Z,93.60
2018-11-02T08:36:40.555Z,94.08
2018-11-02T08:39:22.409Z,94.16
2018-11-02T08:41:52.029Z,94.29
2018-11-02T08:44:22.291Z,94.11
2018-11-02T08:46:52.058Z,93.77
2018-11-02T08:49:21.883Z,93.09
2018-11-02T08:51:51.542Z,92.68
2018-11-02T08:54:21.207Z,92.48
2018-11-02T08:56:50.885Z,92.73
2018-11-02T08:59:20.594Z,92.40
2018-11-02T09:01:50.376Z,92.17
2018-11-02T09:04:20.140Z,93.15
2018-11-02T09:06:49.872Z,92.53
2018-11-02T09:09:19.676Z,92.91
2018-11-02T09:11:49.489Z,92.84
2018-11-02T09:14:19.474Z,92.84
2018-11-02T09:16:49.252Z,92.99
2018-11-02T09:19:19.092Z,92.86
2018-11-02T09:21:48.967Z,92.67
2018-11-02T09:24:18.966Z,92.91
2018-11-02T09:26:48.746Z,92.56
2018-11-02T09:29:18.613Z,92.18
2018-11-02T09:31:48.573Z,92.13
2018-11-02T09:34:19.373Z,91.58
2018-11-02T09:36:49.368Z,90.60
2018-11-02T09:39:19.888Z,90.36
2018-11-02T09:41:49.881Z,89.82
2018-11-02T09:44:19.937Z,89.35
2018-11-02T09:46:49.962Z,88.35
2018-11-02T09:49:20.014Z,88.04
2018-11-02T09:51:49.955Z,88.27
2018-11-02T09:54:19.877Z,87.99
2018-11-02T09:56:49.955Z,87.67
2018-11-02T09:59:19.903Z,88.11
2018-11-02T10:01:49.942Z,88.61
2018-11-02T10:04:19.860Z,88.93
2018-11-02T10:06:49.922Z,88.69
2018-11-02T17:53:54.462Z,83.73
2018-11-02T17:56:24.619Z,82.83
2018-11-02T17:58:54.501Z,82.69
2018-11-02T18:01:24.521Z,82.35
2018-11-02T18:03:54.539Z,81.80
2018-11-02T18:06:24.647Z,81.74
2018-11-02T18:08:54.499Z,81.32
2018-11-02T18:11:24.395Z,81.55
2018-11-02T18:13:54.469Z,81.03
2018-11-02T18:16:26.005Z,81.24
2018-11-02T18:18:56.165Z,81.55
2018-11-02T18:21:26.225Z,82.07
2018-11-02T18:23:56.919Z,81.76
2018-11-02T18:26:27.865Z,82.50
2018-11-02T18:28:58.057Z,82.30
2018-11-02T18:31:28.137Z,82.84
2018-11-02T18:33:58.069Z,82.84
2018-11-02T18:36:28.356Z,82.77
2018-11-02T18:38:58.178Z,82.42
2018-11-02T18:41:28.622Z,82.17
2018-11-02T18:43:59.756Z,81.18
2018-11-02T18:46:29.842Z,80.87
2018-11-02T18:49:00.467Z,80.86
2018-11-02T18:51:30.428Z,80.51
2018-11-02T18:54:00.495Z,80.17
2018-11-02T18:56:30.458Z,80.52
2018-11-02T18:59:00.268Z,80.70
2018-11-02T19:01:30.235Z,80.69
2018-11-02T19:04:00.008Z,80.57
2018-11-02T19:06:30.068Z,80.45
2018-11-02T19:08:59.941Z,80.19
2018-11-02T19:11:29.776Z,80.10
2018-11-02T19:13:59.576Z,80.16
2018-11-02T19:16:29.520Z,79.95
2018-11-02T19:18:59.525Z,80.64
2018-11-02T19:21:29.573Z,80.78
2018-11-02T19:23:59.504Z,81.38
2018-11-02T19:26:29.456Z,80.71
2018-11-02T19:28:59.829Z,80.96
2018-11-02T19:31:29.883Z,81.16
2018-11-02T19:33:59.774Z,81.07
2018-11-02T19:36:29.735Z,81.39
2018-11-02T19:38:59.769Z,81.61
2018-11-02T19:41:30.380Z,81.45
2018-11-02T19:44:00.411Z,80.71
2018-11-02T19:46:30.409Z,80.51
2018-11-02T19:49:00.483Z,80.59
2018-11-02T19:51:30.402Z,81.57
2018-11-02T19:54:00.256Z,81.50
2018-11-02T19:56:30.285Z,81.26
2018-11-02T19:59:00.368Z,81.50
2018-11-02T20:01:30.395Z,82.00
2018-11-02T20:04:51.551Z,81.72
2018-11-02T20:07:21.557Z,81.84
2018-11-02T20:09:51.516Z,81.69
2018-11-02T20:12:21.540Z,81.35
2018-11-02T20:14:52.085Z,80.83
2018-11-02T20:17:22.068Z,81.32
2018-11-02T20:19:52.168Z,80.49
2018-11-02T20:22:22.144Z,80.67
2018-11-02T20:24:52.022Z,80.37
2018-11-02T20:27:22.179Z,80.64
2018-11-02T20:29:51.942Z,81.14
2018-11-02T20:32:22.014Z,81.11
2018-11-02T20:34:51.982Z,80.82
2018-11-02T20:37:21.846Z,80.72
2018-11-02T20:39:51.893Z,80.82
2018-11-02T20:42:21.927Z,80.30
2018-11-02T20:44:51.781Z,80.62
2018-11-02T20:47:21.785Z,80.99
2018-11-02T20:49:51.599Z,81.35
2018-11-02T20:52:21.591Z,81.50
2018-11-02T20:54:51.613Z,81.78
2018-11-02T20:57:21.618Z,81.69
2018-11-02T20:59:51.611Z,81.52
2018-11-02T21:02:21.570Z,81.54
2018-11-02T21:04:51.595Z,81.54
2018-11-02T21:07:21.491Z,81.85
2018-11-02T21:09:51.475Z,81.83
2018-11-02T21:12:21.433Z,81.97
2018-11-02T21:14:51.396Z,82.29
2018-11-02T21:17:21.297Z,82.25
2018-11-02T21:19:51.408Z,82.10
2018-11-02T21:22:21.287Z,82.10
2018-11-02T21:24:51.061Z,81.86
2018-11-02T21:27:21.046Z,82.00
2018-11-02T21:29:51.986Z,82.24
2018-11-02T21:32:22.080Z,81.96
2018-11-02T21:34:51.909Z,82.26
2018-11-02T21:37:21.760Z,82.41
2018-11-02T21:39:51.714Z,82.45
2018-11-02T21:42:21.569Z,82.57
2018-11-02T21:44:52.150Z,82.66
2018-11-02T21:47:21.944Z,82.86
2018-11-02T21:49:51.920Z,82.84
2018-11-02T21:52:21.976Z,83.11
2018-11-02T21:54:52.153Z,83.49
2018-11-02T21:57:22.123Z,83.33
2018-11-02T21:59:52.136Z,83.13
2018-11-02T22:02:22.170Z,82.95
2018-11-02T22:04:52.360Z,82.83
2018-11-02T22:07:22.426Z,83.11
2018-11-02T22:09:52.202Z,83.98
2018-11-02T22:12:22.210Z,84.41
2018-11-02T22:14:52.331Z,84.61
2018-11-02T22:17:22.365Z,85.04
2018-11-02T22:19:52.199Z,85.48
2018-11-02T22:22:22.246Z,85.25
2018-11-02T22:24:52.138Z,85.33
2018-11-02T22:27:22.212Z,85.65
2018-11-02T22:29:52.142Z,85.54
2018-11-02T22:32:22.204Z,86.04
2018-11-02T22:34:52.322Z,86.29
2018-11-02T22:37:22.348Z,86.45
2018-11-02T22:39:52.377Z,86.49
2018-11-02T22:42:22.535Z,86.22
2018-11-02T22:45:49.225Z,86.81
2018-11-02T22:48:24.653Z,87.28
2018-11-02T22:50:56.272Z,87.28
2018-11-02T22:53:26.399Z,87.64
2018-11-02T22:55:56.594Z,87.65
2018-11-02T22:58:26.633Z,87.49
2018-11-02T23:01:01.637Z,87.90
2018-11-02T23:03:31.519Z,87.66
2018-11-02T23:06:01.536Z,87.83
2018-11-02T23:08:31.844Z,88.46
2018-11-02T23:11:01.782Z,88.55
2018-11-02T23:13:31.805Z,88.49
2018-11-02T23:16:03.159Z,88.39
2018-11-02T23:18:33.086Z,88.52
2018-11-02T23:21:03.135Z,88.41
2018-11-02T23:23:33.547Z,89.08
2018-11-02T23:26:03.613Z,88.94
2018-11-02T23:28:33.675Z,89.39
2018-11-02T23:31:03.743Z,89.44
2018-11-02T23:33:33.959Z,89.06
2018-11-02T23:36:03.767Z,89.18
2018-11-02T23:38:33.891Z,88.76
2018-11-02T23:41:03.861Z,88.14
2018-11-02T23:43:33.960Z,88.61
2018-11-02T23:46:04.920Z,88.83
2018-11-02T23:48:35.031Z,89.57
2018-11-02T23:51:05.237Z,89.26
2018-11-02T23:53:35.531Z,89.32
2018-11-02T23:56:06.116Z,89.59
2018-11-02T23:58:36.209Z,89.68
